createdAt,value
2022-08-29T00:01:54.048Z,19.71
2022-08-29T00:06:57.466Z,19.62
2022-08-29T00:12:01.942Z,19.81
2022-08-29T00:17:05.179Z,19.67
2022-08-29T00:22:08.167Z,19.73
2022-08-29T00:27:13.065Z,19.79
2022-08-29T00:32:16.012Z,19.81
2022-08-29T00:37:19.482Z,19.76
2022-08-29T00:42:23.992Z,19.79
2022-08-29T00:47:33.738Z,19.79
2022-08-29T00:52:39.964Z,19.80
2022-08-29T00:57:46.673Z,19.77
2022-08-29T01:02:51.024Z,19.79
2022-08-29T01:07:54.543Z,19.68
2022-08-29T01:12:59.140Z,19.79
2022-08-29T01:18:04.292Z,19.74
2022-08-29T01:23:12.352Z,19.70
2022-08-29T01:28:20.891Z,19.75
2022-08-29T01:33:23.843Z,19.83
2022-08-29T01:38:29.660Z,19.63
2022-08-29T01:43:40.168Z,19.51
2022-08-29T01:48:45.190Z,19.57
2022-08-29T01:53:48.106Z,19.65
2022-08-29T01:58:54.573Z,19.54
2022-08-29T02:03:59.169Z,19.54
2022-08-29T02:09:02.849Z,19.41
2022-08-29T02:14:15.438Z,19.41
2022-08-29T02:19:23.782Z,19.42
2022-08-29T02:24:26.772Z,19.30
2022-08-29T02:29:37.851Z,19.29
2022-08-29T02:34:47.730Z,19.32
2022-08-29T02:39:51.905Z,19.30
2022-08-29T02:44:56.266Z,19.33
2022-08-29T02:49:59.022Z,19.37
2022-08-29T02:55:02.116Z,19.35
2022-08-29T03:00:10.162Z,19.47
2022-08-29T03:05:13.516Z,19.57
2022-08-29T03:10:16.952Z,19.60
2022-08-29T03:15:22.246Z,19.59
2022-08-29T03:20:25.594Z,19.68
2022-08-29T03:25:28.546Z,19.72
2022-08-29T03:30:33.200Z,19.76
2022-08-29T03:35:36.145Z,19.82
2022-08-29T03:40:41.193Z,19.75
2022-08-29T03:45:45.690Z,19.86
2022-08-29T03:50:50.407Z,19.90
2022-08-29T03:55:56.165Z,19.86
2022-08-29T04:01:01.213Z,19.91
2022-08-29T04:06:04.255Z,19.95
2022-08-29T04:11:10.541Z,20.03
2022-08-29T04:16:17.600Z,20.05
2022-08-29T04:21:20.604Z,20.04
2022-08-29T04:26:39.209Z,20.09
2022-08-29T04:31:44.044Z,20.13
2022-08-29T04:36:47.447Z,20.18
2022-08-29T04:41:50.567Z,20.15
2022-08-29T04:46:55.097Z,20.03
2022-08-29T04:51:58.110Z,19.97
2022-08-29T04:57:05.097Z,19.99
2022-08-29T05:02:10.016Z,20.00
2022-08-29T05:07:13.040Z,19.87
2022-08-29T05:12:16.032Z,19.79
2022-08-29T05:17:20.377Z,19.91
2022-08-29T05:22:23.870Z,19.88
2022-08-29T05:27:26.623Z,19.75
2022-08-29T05:32:30.992Z,19.87
2022-08-29T05:37:34.193Z,19.89
2022-08-29T05:42:37.529Z,19.87
2022-08-29T05:47:42.200Z,19.94
2022-08-29T05:52:48.733Z,19.81
2022-08-29T05:57:54.840Z,19.85
2022-08-29T06:02:59.620Z,19.85
2022-08-29T06:08:02.863Z,19.85
2022-08-29T06:13:05.694Z,19.86
2022-08-29T06:18:10.336Z,19.71
2022-08-29T06:23:14.442Z,19.73
2022-08-29T06:28:23.722Z,19.82
2022-08-29T06:33:28.710Z,19.84
2022-08-29T06:38:32.102Z,19.87
2022-08-29T06:43:35.555Z,19.94
2022-08-29T06:48:40.037Z,20.05
2022-08-29T06:53:43.180Z,20.03
2022-08-29T06:58:46.599Z,20.14
2022-08-29T07:03:53.060Z,20.17
2022-08-29T07:08:56.618Z,20.02
2022-08-29T07:14:02.326Z,20.18
2022-08-29T07:19:08.393Z,20.16
2022-08-29T07:24:11.529Z,20.37
2022-08-29T07:29:17.625Z,20.83
2022-08-29T07:34:22.286Z,21.23
2022-08-29T07:39:25.603Z,20.86
2022-08-29T07:44:30.263Z,20.72
2022-08-29T07:49:42.225Z,20.55
2022-08-29T07:54:45.147Z,20.58
2022-08-29T07:59:48.081Z,20.46
2022-08-29T08:04:52.684Z,20.18
2022-08-29T08:09:55.655Z,20.24
2022-08-29T08:14:58.682Z,20.41
2022-08-29T08:20:09.156Z,20.20
2022-08-29T08:25:14.085Z,20.05
2022-08-29T08:30:17.757Z,19.94
2022-08-29T08:35:24.392Z,19.51
2022-08-29T08:40:28.944Z,19.53
2022-08-29T08:45:38.071Z,19.48
2022-08-29T08:50:45.672Z,19.30
2022-08-29T08:55:51.041Z,19.43
2022-08-29T09:00:58.636Z,19.50
2022-08-29T09:06:13.310Z,19.56
2022-08-29T09:11:24.608Z,19.60
2022-08-29T09:16:31.804Z,19.91
2022-08-29T09:21:48.616Z,19.99
2022-08-29T09:26:51.631Z,20.28
2022-08-29T09:32:11.243Z,21.19
2022-08-29T09:37:25.683Z,21.27
2022-08-29T09:42:35.772Z,21.33
2022-08-29T09:47:38.805Z,21.32
2022-08-29T09:52:52.335Z,21.22
2022-08-29T09:57:59.905Z,21.54
2022-08-29T10:03:05.554Z,21.96
2022-08-29T10:08:26.962Z,21.94
2022-08-29T10:13:36.222Z,22.53
2022-08-29T10:18:45.047Z,22.61
2022-08-29T10:24:14.609Z,22.91
2022-08-29T10:29:36.551Z,23.00
2022-08-29T10:34:56.217Z,22.35
2022-08-29T10:40:06.616Z,22.14
2022-08-29T10:45:15.612Z,21.91
2022-08-29T10:50:43.439Z,21.99
2022-08-29T10:55:54.860Z,22.21
2022-08-29T11:01:06.930Z,21.97
2022-08-29T11:06:17.983Z,22.36
2022-08-29T11:11:30.336Z,21.99
2022-08-29T11:16:38.826Z,22.46
2022-08-29T11:21:47.313Z,22.77
2022-08-29T11:27:00.645Z,22.83
2022-08-29T11:32:10.080Z,23.27
2022-08-29T11:37:54.819Z,23.28
2022-08-29T11:43:01.497Z,23.57
2022-08-29T11:48:19.777Z,23.24
2022-08-29T11:53:37.733Z,23.28
2022-08-29T11:58:46.378Z,22.94
2022-08-29T12:03:49.652Z,22.81
2022-08-29T12:09:02.868Z,22.76
2022-08-29T12:14:08.982Z,22.92
2022-08-29T12:19:11.982Z,22.57
2022-08-29T12:24:32.094Z,22.54
2022-08-29T12:29:44.733Z,22.84
2022-08-29T12:35:01.881Z,22.87
2022-08-29T12:40:22.715Z,22.88
2022-08-29T12:45:30.485Z,22.83
2022-08-29T12:50:36.934Z,23.10
2022-08-29T12:55:42.483Z,23.28
2022-08-29T13:00:52.974Z,22.99
2022-08-29T13:06:03.927Z,22.94
2022-08-29T13:11:09.089Z,22.91
2022-08-29T13:16:25.963Z,22.37
2022-08-29T13:21:32.003Z,22.41
2022-08-29T13:26:36.489Z,22.68
2022-08-29T13:31:41.518Z,22.36
2022-08-29T13:36:54.814Z,22.39
2022-08-29T13:42:24.147Z,22.64
2022-08-29T13:47:31.052Z,22.37
2022-08-29T13:52:34.454Z,22.21
2022-08-29T13:57:40.541Z,22.50
2022-08-29T14:02:46.473Z,22.78
2022-08-29T14:07:49.919Z,22.91
2022-08-29T14:12:53.035Z,22.83
2022-08-29T14:17:58.606Z,22.81
2022-08-29T14:23:01.482Z,22.67
2022-08-29T14:28:04.534Z,22.73
2022-08-29T14:33:09.135Z,22.33
2022-08-29T14:38:12.321Z,22.23
2022-08-29T14:43:15.268Z,22.26
2022-08-29T14:48:20.129Z,22.50
2022-08-29T14:53:23.628Z,22.64
2022-08-29T14:58:26.673Z,22.56
2022-08-29T15:03:31.418Z,22.64
2022-08-29T15:08:34.303Z,22.58
2022-08-29T15:13:37.447Z,22.55
2022-08-29T15:19:24.936Z,22.68
2022-08-29T15:24:06.065Z,22.65
2022-08-29T15:29:09.200Z,22.70
2022-08-29T15:34:14.448Z,22.52
2022-08-29T15:39:17.599Z,22.43
2022-08-29T15:44:20.433Z,22.49
2022-08-29T15:49:25.934Z,22.55
2022-08-29T15:54:28.880Z,22.24
2022-08-29T15:59:56.619Z,22.31
2022-08-29T16:04:57.561Z,22.12
2022-08-29T16:10:03.605Z,22.16
2022-08-29T16:15:10.049Z,22.12
2022-08-29T16:20:14.823Z,22.06
2022-08-29T16:25:18.053Z,22.04
2022-08-29T16:30:21.550Z,21.82
2022-08-29T16:35:26.976Z,21.77
2022-08-29T16:40:29.885Z,21.75
2022-08-29T16:45:33.541Z,21.58
2022-08-29T16:50:38.660Z,21.36
2022-08-29T16:55:41.832Z,21.39
2022-08-29T17:00:45.253Z,21.19
2022-08-29T17:05:49.885Z,21.07
2022-08-29T17:10:53.093Z,20.95
2022-08-29T17:15:56.108Z,20.72
2022-08-29T17:21:00.607Z,20.70
2022-08-29T17:26:06.606Z,20.49
2022-08-29T17:31:09.791Z,20.18
2022-08-29T17:36:14.713Z,19.91
2022-08-29T17:41:19.550Z,19.74
2022-08-29T17:46:24.633Z,19.53
2022-08-29T17:51:29.195Z,19.23
2022-08-29T17:56:44.352Z,19.05
2022-08-29T18:01:48.082Z,18.89
2022-08-29T18:06:53.421Z,18.81
2022-08-29T18:11:58.510Z,18.70
2022-08-29T18:17:01.451Z,18.58
2022-08-29T18:22:06.529Z,18.40
2022-08-29T18:27:09.682Z,18.37
2022-08-29T18:32:12.538Z,18.24
2022-08-29T18:37:16.939Z,18.27
2022-08-29T18:42:38.833Z,18.09
2022-08-29T18:47:42.798Z,17.96
2022-08-29T18:52:47.116Z,17.89
2022-08-29T18:57:52.337Z,17.83
2022-08-29T19:02:56.782Z,17.69
2022-08-29T19:08:02.267Z,17.61
2022-08-29T19:13:08.320Z,17.54
2022-08-29T19:18:11.220Z,17.53
2022-08-29T19:23:16.866Z,17.46
2022-08-29T19:28:20.995Z,17.39
2022-08-29T19:33:24.132Z,17.33
2022-08-29T19:38:30.453Z,17.31
2022-08-29T19:43:34.873Z,17.21
2022-08-29T19:48:38.910Z,17.24
2022-08-29T19:53:44.248Z,17.21
2022-08-29T19:58:49.407Z,17.26
2022-08-29T20:03:53.538Z,17.25
2022-08-29T20:08:58.790Z,17.22
2022-08-29T20:14:02.353Z,17.17
2022-08-29T20:19:05.924Z,17.17
2022-08-29T20:24:11.032Z,17.09
2022-08-29T20:29:19.009Z,17.01
2022-08-29T20:34:22.443Z,17.09
2022-08-29T20:39:27.254Z,17.02
2022-08-29T20:44:34.195Z,17.00
2022-08-29T20:49:37.655Z,16.92
2022-08-29T20:54:46.233Z,16.92
2022-08-29T20:59:49.682Z,16.93
2022-08-29T21:05:11.029Z,16.81
2022-08-29T21:10:15.429Z,16.84
2022-08-29T21:15:18.538Z,16.74
2022-08-29T21:20:21.554Z,16.70
2022-08-29T21:25:25.910Z,16.70
2022-08-29T21:30:30.333Z,16.70
2022-08-29T21:35:33.942Z,16.64
2022-08-29T21:40:50.571Z,16.62
2022-08-29T21:45:54.242Z,16.65
2022-08-29T21:50:57.600Z,16.63
2022-08-29T21:56:02.053Z,16.57
2022-08-29T22:01:05.330Z,16.45
2022-08-29T22:06:11.310Z,16.42
2022-08-29T22:11:22.966Z,16.42
2022-08-29T22:16:32.166Z,16.35
2022-08-29T22:21:38.786Z,16.37
2022-08-29T22:26:43.638Z,16.30
2022-08-29T22:31:46.977Z,16.16
2022-08-29T22:36:49.898Z,16.22
2022-08-29T22:41:55.219Z,16.16
2022-08-29T22:46:58.882Z,16.01
2022-08-29T22:52:02.447Z,15.99
2022-08-29T22:57:09.544Z,15.96
2022-08-29T23:02:13.125Z,15.97
2022-08-29T23:07:16.322Z,15.90
2022-08-29T23:12:20.673Z,15.82
2022-08-29T23:17:23.738Z,15.77
2022-08-29T23:22:26.927Z,15.71
2022-08-29T23:27:33.055Z,15.68
2022-08-29T23:32:36.513Z,15.63
2022-08-29T23:37:39.807Z,15.63
2022-08-29T23:42:44.159Z,15.65
2022-08-29T23:47:47.111Z,15.66
2022-08-29T23:52:50.162Z,15.60
2022-08-29T23:57:54.952Z,15.56
